sensor_id;sensor_type;location;lat;lon;timestamp;P1;durP1;ratioP1;P2;durP2;ratioP2
63114;SDS011;49208;50.874;6.466;2024-02-16T07:02:01;5.25;;;2.83;;
63114;SDS011;49208;50.874;6.466;2024-02-16T07:04:27;3.80;;;2.10;;
63114;SDS011;49208;50.874;6.466;2024-02-16T07:06:53;5.03;;;2.23;;
63114;SDS011;49208;50.874;6.466;2024-02-16T07:09:19;5.90;;;2.63;;
63114;SDS011;49208;50.874;6.466;2024-02-16T07:11:45;6.68;;;2.75;;
63114;SDS011;49208;50.874;6.466;2024-02-16T07:14:11;4.60;;;2.25;;
63114;SDS011;49208;50.874;6.466;2024-02-16T07:16:37;5.63;;;2.57;;
63114;SDS011;49208;50.874;6.466;2024-02-16T07:19:03;5.80;;;2.15;;
63114;SDS011;49208;50.874;6.466;2024-02-16T07:21:30;7.00;;;2.55;;
63114;SDS011;49208;50.874;6.466;2024-02-16T07:23:55;7.70;;;2.45;;
63114;SDS011;49208;50.874;6.466;2024-02-16T07:26:21;7.28;;;2.40;;
63114;SDS011;49208;50.874;6.466;2024-02-16T07:28:47;6.95;;;2.97;;
63114;SDS011;49208;50.874;6.466;2024-02-16T07:31:12;5.70;;;2.90;;
63114;SDS011;49208;50.874;6.466;2024-02-16T07:33:39;6.97;;;2.28;;
63114;SDS011;49208;50.874;6.466;2024-02-16T07:36:04;6.80;;;2.58;;
63114;SDS011;49208;50.874;6.466;2024-02-16T07:38:30;5.38;;;3.03;;
63114;SDS011;49208;50.874;6.466;2024-02-16T07:40:55;8.15;;;2.60;;
63114;SDS011;49208;50.874;6.466;2024-02-16T07:43:21;4.57;;;2.22;;
63114;SDS011;49208;50.874;6.466;2024-02-16T07:45:49;4.68;;;2.40;;
63114;SDS011;49208;50.874;6.466;2024-02-16T07:48:14;5.50;;;2.33;;
63114;SDS011;49208;50.874;6.466;2024-02-16T07:50:40;9.57;;;3.08;;
63114;SDS011;49208;50.874;6.466;2024-02-16T07:53:06;5.53;;;2.40;;
63114;SDS011;49208;50.874;6.466;2024-02-16T07:55:31;8.15;;;2.63;;
63114;SDS011;49208;50.874;6.466;2024-02-16T07:57:57;5.97;;;2.97;;
63114;SDS011;49208;50.874;6.466;2024-02-16T08:00:22;7.30;;;2.67;;
63114;SDS011;49208;50.874;6.466;2024-02-16T08:02:48;6.20;;;2.30;;
63114;SDS011;49208;50.874;6.466;2024-02-16T08:05:13;6.38;;;2.20;;
63114;SDS011;49208;50.874;6.466;2024-02-16T08:07:39;5.40;;;2.70;;
63114;SDS011;49208;50.874;6.466;2024-02-16T08:10:09;6.95;;;2.72;;
63114;SDS011;49208;50.874;6.466;2024-02-16T08:12:35;5.40;;;2.17;;
63114;SDS011;49208;50.874;6.466;2024-02-16T08:15:01;7.45;;;2.47;;
63114;SDS011;49208;50.874;6.466;2024-02-16T08:17:29;7.88;;;2.35;;
63114;SDS011;49208;50.874;6.466;2024-02-16T08:19:54;5.07;;;2.45;;
63114;SDS011;49208;50.874;6.466;2024-02-16T08:22:20;5.22;;;3.03;;
63114;SDS011;49208;50.874;6.466;2024-02-16T08:24:46;6.53;;;2.65;;
63114;SDS011;49208;50.874;6.466;2024-02-16T08:27:14;4.13;;;2.47;;
63114;SDS011;49208;50.874;6.466;2024-02-16T08:29:40;11.52;;;2.55;;
63114;SDS011;49208;50.874;6.466;2024-02-16T08:32:05;5.15;;;2.45;;
63114;SDS011;49208;50.874;6.466;2024-02-16T08:34:31;7.03;;;2.50;;
63114;SDS011;49208;50.874;6.466;2024-02-16T08:36:56;6.47;;;2.50;;
63114;SDS011;49208;50.874;6.466;2024-02-16T08:39:22;7.80;;;2.70;;
63114;SDS011;49208;50.874;6.466;2024-02-16T08:41:50;6.20;;;3.25;;
63114;SDS011;49208;50.874;6.466;2024-02-16T08:44:18;6.25;;;3.38;;
63114;SDS011;49208;50.874;6.466;2024-02-16T08:46:44;6.72;;;2.80;;
63114;SDS011;49208;50.874;6.466;2024-02-16T08:51:36;8.05;;;2.33;;
63114;SDS011;49208;50.874;6.466;2024-02-16T08:54:02;6.60;;;2.50;;
63114;SDS011;49208;50.874;6.466;2024-02-16T08:56:29;4.63;;;2.30;;
63114;SDS011;49208;50.874;6.466;2024-02-16T08:58:55;5.65;;;2.35;;
63114;SDS011;49208;50.874;6.466;2024-02-16T09:01:30;9.20;;;3.13;;
63114;SDS011;49208;50.874;6.466;2024-02-16T09:03:58;6.72;;;2.30;;
63114;SDS011;49208;50.874;6.466;2024-02-16T09:06:24;4.35;;;2.08;;
63114;SDS011;49208;50.874;6.466;2024-02-16T09:08:49;4.88;;;2.13;;
63114;SDS011;49208;50.874;6.466;2024-02-16T09:11:15;6.53;;;2.42;;
63114;SDS011;49208;50.874;6.466;2024-02-16T09:13:40;6.13;;;2.78;;
63114;SDS011;49208;50.874;6.466;2024-02-16T09:16:06;7.90;;;2.33;;
63114;SDS011;49208;50.874;6.466;2024-02-16T09:18:32;4.40;;;2.30;;
63114;SDS011;49208;50.874;6.466;2024-02-16T09:20:58;5.88;;;2.75;;
63114;SDS011;49208;50.874;6.466;2024-02-16T09:23:24;4.07;;;2.10;;
63114;SDS011;49208;50.874;6.466;2024-02-16T09:25:50;7.07;;;2.00;;
63114;SDS011;49208;50.874;6.466;2024-02-16T09:28:16;8.63;;;2.67;;
63114;SDS011;49208;50.874;6.466;2024-02-16T09:30:44;8.18;;;2.72;;
63114;SDS011;49208;50.874;6.466;2024-02-16T09:33:09;6.90;;;2.53;;
63114;SDS011;49208;50.874;6.466;2024-02-16T09:35:35;4.22;;;2.35;;
63114;SDS011;49208;50.874;6.466;2024-02-16T09:38:00;6.65;;;2.75;;
63114;SDS011;49208;50.874;6.466;2024-02-16T09:40:26;7.53;;;2.38;;
63114;SDS011;49208;50.874;6.466;2024-02-16T09:42:51;6.75;;;2.65;;
63114;SDS011;49208;50.874;6.466;2024-02-16T09:45:17;3.95;;;1.95;;
63114;SDS011;49208;50.874;6.466;2024-02-16T09:47:43;7.25;;;2.60;;
63114;SDS011;49208;50.874;6.466;2024-02-16T09:50:12;6.97;;;2.03;;
63114;SDS011;49208;50.874;6.466;2024-02-16T09:52:38;7.20;;;2.53;;
63114;SDS011;49208;50.874;6.466;2024-02-16T09:55:03;7.00;;;2.28;;
63114;SDS011;49208;50.874;6.466;2024-02-16T09:57:32;6.00;;;2.08;;
63114;SDS011;49208;50.874;6.466;2024-02-16T09:59:57;6.85;;;2.10;;
63114;SDS011;49208;50.874;6.466;2024-02-16T10:02:22;5.10;;;2.33;;
63114;SDS011;49208;50.874;6.466;2024-02-16T10:04:48;6.47;;;2.58;;
63114;SDS011;49208;50.874;6.466;2024-02-16T10:07:14;5.07;;;2.20;;
63114;SDS011;49208;50.874;6.466;2024-02-16T10:09:40;7.72;;;2.63;;
63114;SDS011;49208;50.874;6.466;2024-02-16T10:12:05;5.30;;;1.80;;
63114;SDS011;49208;50.874;6.466;2024-02-16T10:14:31;6.32;;;2.28;;
63114;SDS011;49208;50.874;6.466;2024-02-16T10:17:04;7.15;;;2.92;;
63114;SDS011;49208;50.874;6.466;2024-02-16T10:19:32;7.68;;;2.83;;
63114;SDS011;49208;50.874;6.466;2024-02-16T10:22:11;7.60;;;3.08;;
63114;SDS011;49208;50.874;6.466;2024-02-16T10:24:37;7.07;;;2.90;;
63114;SDS011;49208;50.874;6.466;2024-02-16T10:27:13;5.05;;;2.60;;
63114;SDS011;49208;50.874;6.466;2024-02-16T10:29:46;8.20;;;2.90;;
63114;SDS011;49208;50.874;6.466;2024-02-16T10:32:14;8.50;;;2.75;;
63114;SDS011;49208;50.874;6.466;2024-02-16T10:34:40;10.05;;;3.70;;
63114;SDS011;49208;50.874;6.466;2024-02-16T10:37:06;6.20;;;2.67;;
63114;SDS011;49208;50.874;6.466;2024-02-16T10:39:32;7.82;;;2.78;;
63114;SDS011;49208;50.874;6.466;2024-02-16T10:41:57;7.72;;;2.90;;
63114;SDS011;49208;50.874;6.466;2024-02-16T10:46:52;10.52;;;3.03;;
63114;SDS011;49208;50.874;6.466;2024-02-16T10:49:18;8.45;;;3.05;;
63114;SDS011;49208;50.874;6.466;2024-02-16T10:51:47;7.20;;;3.17;;
63114;SDS011;49208;50.874;6.466;2024-02-16T10:54:21;7.90;;;2.30;;
63114;SDS011;49208;50.874;6.466;2024-02-16T10:56:52;6.60;;;2.80;;
63114;SDS011;49208;50.874;6.466;2024-02-16T10:59:25;7.72;;;2.78;;
63114;SDS011;49208;50.874;6.466;2024-02-16T11:01:59;8.52;;;3.40;;
63114;SDS011;49208;50.874;6.466;2024-02-16T11:04:35;8.50;;;3.20;;
63114;SDS011;49208;50.874;6.466;2024-02-16T11:07:10;8.70;;;3.13;;
63114;SDS011;49208;50.874;6.466;2024-02-16T11:09:38;7.90;;;3.25;;
63114;SDS011;49208;50.874;6.466;2024-02-16T11:12:05;8.95;;;3.38;;
63114;SDS011;49208;50.874;6.466;2024-02-16T11:17:12;5.90;;;2.50;;
63114;SDS011;49208;50.874;6.466;2024-02-16T11:19:44;7.10;;;3.30;;
63114;SDS011;49208;50.874;6.466;2024-02-16T11:22:11;8.20;;;3.13;;
63114;SDS011;49208;50.874;6.466;2024-02-16T11:24:47;6.20;;;2.85;;
63114;SDS011;49208;50.874;6.466;2024-02-16T11:27:13;7.90;;;2.95;;
63114;SDS011;49208;50.874;6.466;2024-02-16T11:29:43;6.10;;;2.83;;
63114;SDS011;49208;50.874;6.466;2024-02-16T11:32:10;5.55;;;2.78;;
63114;SDS011;49208;50.874;6.466;2024-02-16T11:34:35;8.38;;;3.08;;
63114;SDS011;49208;50.874;6.466;2024-02-16T11:39:30;8.35;;;3.63;;
63114;SDS011;49208;50.874;6.466;2024-02-16T11:42:00;8.68;;;3.10;;
63114;SDS011;49208;50.874;6.466;2024-02-16T11:44:30;9.50;;;3.30;;
63114;SDS011;49208;50.874;6.466;2024-02-16T11:47:00;7.32;;;3.60;;
63114;SDS011;49208;50.874;6.466;2024-02-16T11:49:27;10.68;;;4.13;;
63114;SDS011;49208;50.874;6.466;2024-02-16T11:51:56;6.25;;;3.17;;
63114;SDS011;49208;50.874;6.466;2024-02-16T11:54:21;10.00;;;3.40;;
63114;SDS011;49208;50.874;6.466;2024-02-16T11:56:48;8.65;;;3.85;;
63114;SDS011;49208;50.874;6.466;2024-02-16T11:59:17;8.55;;;3.83;;
63114;SDS011;49208;50.874;6.466;2024-02-16T12:01:53;8.57;;;3.67;;
63114;SDS011;49208;50.874;6.466;2024-02-16T12:04:29;7.97;;;3.25;;
63114;SDS011;49208;50.874;6.466;2024-02-16T12:06:59;8.40;;;3.78;;
63114;SDS011;49208;50.874;6.466;2024-02-16T12:09:25;6.47;;;3.97;;
63114;SDS011;49208;50.874;6.466;2024-02-16T12:11:54;9.20;;;4.10;;
63114;SDS011;49208;50.874;6.466;2024-02-16T12:14:23;8.43;;;4.00;;
63114;SDS011;49208;50.874;6.466;2024-02-16T12:16:49;12.32;;;4.38;;
63114;SDS011;49208;50.874;6.466;2024-02-16T12:19:18;7.20;;;3.42;;
63114;SDS011;49208;50.874;6.466;2024-02-16T12:21:48;9.27;;;4.10;;
63114;SDS011;49208;50.874;6.466;2024-02-16T12:24:15;8.40;;;4.57;;
63114;SDS011;49208;50.874;6.466;2024-02-16T12:26:40;9.38;;;3.92;;
63114;SDS011;49208;50.874;6.466;2024-02-16T12:29:06;8.00;;;3.72;;
63114;SDS011;49208;50.874;6.466;2024-02-16T12:31:31;8.82;;;3.83;;
63114;SDS011;49208;50.874;6.466;2024-02-16T12:33:57;8.52;;;4.03;;
63114;SDS011;49208;50.874;6.466;2024-02-16T12:36:22;7.18;;;3.95;;
63114;SDS011;49208;50.874;6.466;2024-02-16T12:38:48;9.77;;;4.47;;
63114;SDS011;49208;50.874;6.466;2024-02-16T12:41:14;7.63;;;3.30;;
63114;SDS011;49208;50.874;6.466;2024-02-16T12:43:40;8.45;;;4.38;;
63114;SDS011;49208;50.874;6.466;2024-02-16T12:46:06;8.55;;;4.30;;
63114;SDS011;49208;50.874;6.466;2024-02-16T12:48:31;10.63;;;4.55;;
63114;SDS011;49208;50.874;6.466;2024-02-16T12:50:56;6.95;;;3.78;;
63114;SDS011;49208;50.874;6.466;2024-02-16T12:53:23;8.25;;;4.25;;
63114;SDS011;49208;50.874;6.466;2024-02-16T12:55:50;7.35;;;3.55;;
63114;SDS011;49208;50.874;6.466;2024-02-16T12:58:15;11.90;;;4.40;;
63114;SDS011;49208;50.874;6.466;2024-02-16T13:00:41;6.75;;;3.53;;
63114;SDS011;49208;50.874;6.466;2024-02-16T13:03:06;8.98;;;4.05;;
63114;SDS011;49208;50.874;6.466;2024-02-16T13:05:31;8.30;;;3.80;;
63114;SDS011;49208;50.874;6.466;2024-02-16T13:07:58;12.20;;;4.05;;
63114;SDS011;49208;50.874;6.466;2024-02-16T13:10:23;9.18;;;4.20;;
63114;SDS011;49208;50.874;6.466;2024-02-16T13:12:49;10.63;;;4.72;;
63114;SDS011;49208;50.874;6.466;2024-02-16T13:15:14;7.75;;;4.07;;
63114;SDS011;49208;50.874;6.466;2024-02-16T13:17:39;6.93;;;3.65;;
63114;SDS011;49208;50.874;6.466;2024-02-16T13:20:05;9.85;;;5.32;;
63114;SDS011;49208;50.874;6.466;2024-02-16T13:22:32;8.30;;;4.00;;
63114;SDS011;49208;50.874;6.466;2024-02-16T13:24:58;7.53;;;4.20;;
63114;SDS011;49208;50.874;6.466;2024-02-16T13:27:24;7.72;;;4.45;;
63114;SDS011;49208;50.874;6.466;2024-02-16T13:29:49;11.32;;;4.85;;
63114;SDS011;49208;50.874;6.466;2024-02-16T13:32:15;7.95;;;4.50;;
63114;SDS011;49208;50.874;6.466;2024-02-16T13:34:40;10.63;;;4.43;;
63114;SDS011;49208;50.874;6.466;2024-02-16T13:37:06;11.27;;;4.68;;
63114;SDS011;49208;50.874;6.466;2024-02-16T13:39:31;9.15;;;4.82;;
63114;SDS011;49208;50.874;6.466;2024-02-16T13:41:56;12.90;;;4.57;;
63114;SDS011;49208;50.874;6.466;2024-02-16T13:44:22;10.55;;;4.57;;
63114;SDS011;49208;50.874;6.466;2024-02-16T13:46:48;10.68;;;4.68;;
63114;SDS011;49208;50.874;6.466;2024-02-16T13:49:14;9.48;;;4.40;;
63114;SDS011;49208;50.874;6.466;2024-02-16T13:51:40;12.32;;;4.65;;
63114;SDS011;49208;50.874;6.466;2024-02-16T13:54:06;11.43;;;4.50;;
63114;SDS011;49208;50.874;6.466;2024-02-16T13:56:31;10.27;;;4.82;;
63114;SDS011;49208;50.874;6.466;2024-02-16T13:58:57;9.00;;;4.63;;
63114;SDS011;49208;50.874;6.466;2024-02-16T14:01:22;9.27;;;4.72;;
63114;SDS011;49208;50.874;6.466;2024-02-16T14:03:49;11.90;;;5.15;;
63114;SDS011;49208;50.874;6.466;2024-02-16T14:06:16;9.88;;;5.50;;
63114;SDS011;49208;50.874;6.466;2024-02-16T14:08:41;10.05;;;4.88;;
63114;SDS011;49208;50.874;6.466;2024-02-16T14:11:06;11.48;;;4.97;;
63114;SDS011;49208;50.874;6.466;2024-02-16T14:13:33;8.10;;;4.53;;
63114;SDS011;49208;50.874;6.466;2024-02-16T14:15:59;9.25;;;5.75;;
63114;SDS011;49208;50.874;6.466;2024-02-16T14:18:25;11.40;;;5.95;;
63114;SDS011;49208;50.874;6.466;2024-02-16T14:20:50;10.90;;;6.28;;
63114;SDS011;49208;50.874;6.466;2024-02-16T14:23:15;9.95;;;5.43;;
63114;SDS011;49208;50.874;6.466;2024-02-16T14:25:41;12.15;;;5.82;;
63114;SDS011;49208;50.874;6.466;2024-02-16T14:28:06;9.55;;;5.72;;
63114;SDS011;49208;50.874;6.466;2024-02-16T14:30:32;11.07;;;6.25;;
63114;SDS011;49208;50.874;6.466;2024-02-16T14:32:58;13.48;;;6.18;;
63114;SDS011;49208;50.874;6.466;2024-02-16T14:35:24;11.23;;;5.63;;
63114;SDS011;49208;50.874;6.466;2024-02-16T14:37:49;10.70;;;5.63;;
63114;SDS011;49208;50.874;6.466;2024-02-16T14:40:14;12.75;;;6.78;;
63114;SDS011;49208;50.874;6.466;2024-02-16T14:42:40;10.85;;;6.68;;
63114;SDS011;49208;50.874;6.466;2024-02-16T14:45:07;11.88;;;5.93;;
63114;SDS011;49208;50.874;6.466;2024-02-16T14:47:35;11.25;;;6.45;;
63114;SDS011;49208;50.874;6.466;2024-02-16T14:52:28;9.07;;;6.43;;
63114;SDS011;49208;50.874;6.466;2024-02-16T14:54:54;10.55;;;6.18;;
63114;SDS011;49208;50.874;6.466;2024-02-16T14:57:20;8.82;;;6.03;;
63114;SDS011;49208;50.874;6.466;2024-02-16T15:02:13;9.38;;;4.97;;
63114;SDS011;49208;50.874;6.466;2024-02-16T15:04:38;8.07;;;4.47;;
63114;SDS011;49208;50.874;6.466;2024-02-16T15:07:03;6.50;;;4.25;;
63114;SDS011;49208;50.874;6.466;2024-02-16T15:09:30;9.40;;;3.92;;
63114;SDS011;49208;50.874;6.466;2024-02-16T15:11:55;5.80;;;3.50;;
63114;SDS011;49208;50.874;6.466;2024-02-16T15:14:21;5.55;;;3.65;;
63114;SDS011;49208;50.874;6.466;2024-02-16T15:16:47;7.03;;;4.47;;
63114;SDS011;49208;50.874;6.466;2024-02-16T15:19:13;6.28;;;3.72;;
63114;SDS011;49208;50.874;6.466;2024-02-16T15:21:38;5.75;;;3.40;;
63114;SDS011;49208;50.874;6.466;2024-02-16T15:24:04;6.68;;;3.63;;
63114;SDS011;49208;50.874;6.466;2024-02-16T15:26:30;6.22;;;3.83;;
63114;SDS011;49208;50.874;6.466;2024-02-16T15:28:55;7.53;;;3.83;;
63114;SDS011;49208;50.874;6.466;2024-02-16T15:31:20;7.95;;;3.85;;
63114;SDS011;49208;50.874;6.466;2024-02-16T15:33:46;5.93;;;3.63;;
63114;SDS011;49208;50.874;6.466;2024-02-16T15:36:11;5.72;;;2.70;;
63114;SDS011;49208;50.874;6.466;2024-02-16T15:38:36;5.38;;;3.13;;
63114;SDS011;49208;50.874;6.466;2024-02-16T15:41:02;5.38;;;3.00;;
63114;SDS011;49208;50.874;6.466;2024-02-16T15:43:27;6.85;;;2.95;;
63114;SDS011;49208;50.874;6.466;2024-02-16T15:45:53;6.75;;;3.10;;
63114;SDS011;49208;50.874;6.466;2024-02-16T15:48:18;7.22;;;3.83;;
63114;SDS011;49208;50.874;6.466;2024-02-16T15:50:43;6.03;;;3.30;;
63114;SDS011;49208;50.874;6.466;2024-02-16T15:53:09;5.63;;;3.20;;
63114;SDS011;49208;50.874;6.466;2024-02-16T15:55:34;6.60;;;3.63;;
63114;SDS011;49208;50.874;6.466;2024-02-16T15:58:00;5.20;;;2.90;;
63114;SDS011;49208;50.874;6.466;2024-02-16T16:00:25;4.25;;;2.75;;
63114;SDS011;49208;50.874;6.466;2024-02-16T16:02:51;5.70;;;3.90;;
63114;SDS011;49208;50.874;6.466;2024-02-16T16:05:17;6.13;;;3.92;;
63114;SDS011;49208;50.874;6.466;2024-02-16T16:07:43;9.82;;;5.78;;
63114;SDS011;49208;50.874;6.466;2024-02-16T16:10:08;6.20;;;4.18;;
63114;SDS011;49208;50.874;6.466;2024-02-16T16:12:34;6.57;;;4.25;;
63114;SDS011;49208;50.874;6.466;2024-02-16T16:15:00;6.78;;;3.90;;
63114;SDS011;49208;50.874;6.466;2024-02-16T16:17:26;6.50;;;3.80;;
63114;SDS011;49208;50.874;6.466;2024-02-16T16:19:51;7.35;;;4.03;;
63114;SDS011;49208;50.874;6.466;2024-02-16T16:22:17;7.22;;;3.45;;
63114;SDS011;49208;50.874;6.466;2024-02-16T16:24:42;6.60;;;4.05;;
63114;SDS011;49208;50.874;6.466;2024-02-16T16:27:08;9.68;;;4.05;;
63114;SDS011;49208;50.874;6.466;2024-02-16T16:29:33;6.85;;;4.28;;
63114;SDS011;49208;50.874;6.466;2024-02-16T16:31:59;5.50;;;3.55;;
63114;SDS011;49208;50.874;6.466;2024-02-16T16:34:27;7.10;;;4.28;;
63114;SDS011;49208;50.874;6.466;2024-02-16T16:36:54;7.13;;;4.50;;
63114;SDS011;49208;50.874;6.466;2024-02-16T16:39:20;7.25;;;4.32;;
63114;SDS011;49208;50.874;6.466;2024-02-16T16:41:45;7.70;;;4.03;;
63114;SDS011;49208;50.874;6.466;2024-02-16T16:44:11;7.05;;;4.20;;
63114;SDS011;49208;50.874;6.466;2024-02-16T16:46:36;7.57;;;4.22;;
63114;SDS011;49208;50.874;6.466;2024-02-16T16:49:03;7.57;;;3.78;;
63114;SDS011;49208;50.874;6.466;2024-02-16T16:51:28;6.63;;;4.00;;
63114;SDS011;49208;50.874;6.466;2024-02-16T16:53:54;6.60;;;3.75;;
63114;SDS011;49208;50.874;6.466;2024-02-16T16:56:20;7.43;;;4.75;;
63114;SDS011;49208;50.874;6.466;2024-02-16T16:58:45;8.48;;;4.78;;
63114;SDS011;49208;50.874;6.466;2024-02-16T17:01:10;6.63;;;3.47;;
63114;SDS011;49208;50.874;6.466;2024-02-16T17:03:37;7.23;;;4.00;;
63114;SDS011;49208;50.874;6.466;2024-02-16T17:06:03;6.90;;;3.92;;
63114;SDS011;49208;50.874;6.466;2024-02-16T17:08:30;6.38;;;3.78;;
63114;SDS011;49208;50.874;6.466;2024-02-16T17:10:56;7.13;;;3.77;;
63114;SDS011;49208;50.874;6.466;2024-02-16T17:13:22;6.88;;;4.00;;
63114;SDS011;49208;50.874;6.466;2024-02-16T17:15:48;5.80;;;3.58;;
63114;SDS011;49208;50.874;6.466;2024-02-16T17:18:14;8.05;;;3.90;;
63114;SDS011;49208;50.874;6.466;2024-02-16T17:20:40;5.78;;;3.53;;
63114;SDS011;49208;50.874;6.466;2024-02-16T17:23:06;7.35;;;4.40;;
63114;SDS011;49208;50.874;6.466;2024-02-16T17:25:32;8.48;;;4.32;;
63114;SDS011;49208;50.874;6.466;2024-02-16T17:27:57;10.07;;;5.97;;
63114;SDS011;49208;50.874;6.466;2024-02-16T17:30:23;8.35;;;5.15;;
63114;SDS011;49208;50.874;6.466;2024-02-16T17:32:48;9.50;;;6.25;;
63114;SDS011;49208;50.874;6.466;2024-02-16T17:35:14;8.23;;;5.63;;
63114;SDS011;49208;50.874;6.466;2024-02-16T17:37:41;9.93;;;5.80;;
63114;SDS011;49208;50.874;6.466;2024-02-16T17:40:10;8.77;;;5.45;;
63114;SDS011;49208;50.874;6.466;2024-02-16T17:42:36;9.18;;;5.80;;
63114;SDS011;49208;50.874;6.466;2024-02-16T17:45:02;8.18;;;5.53;;
63114;SDS011;49208;50.874;6.466;2024-02-16T17:47:31;10.57;;;6.85;;
63114;SDS011;49208;50.874;6.466;2024-02-16T17:49:58;9.55;;;6.30;;
63114;SDS011;49208;50.874;6.466;2024-02-16T17:52:24;10.00;;;6.40;;
63114;SDS011;49208;50.874;6.466;2024-02-16T17:54:50;10.23;;;6.47;;
63114;SDS011;49208;50.874;6.466;2024-02-16T17:57:16;9.75;;;6.43;;
63114;SDS011;49208;50.874;6.466;2024-02-16T17:59:41;10.98;;;6.63;;
63114;SDS011;49208;50.874;6.466;2024-02-16T18:02:06;10.63;;;6.72;;
63114;SDS011;49208;50.874;6.466;2024-02-16T18:04:32;12.07;;;7.63;;
63114;SDS011;49208;50.874;6.466;2024-02-16T18:06:58;11.32;;;7.13;;
63114;SDS011;49208;50.874;6.466;2024-02-16T18:09:24;11.05;;;6.97;;
63114;SDS011;49208;50.874;6.466;2024-02-16T18:11:49;13.13;;;7.78;;
63114;SDS011;49208;50.874;6.466;2024-02-16T18:14:14;12.25;;;8.07;;
63114;SDS011;49208;50.874;6.466;2024-02-16T18:16:40;10.90;;;7.18;;
63114;SDS011;49208;50.874;6.466;2024-02-16T18:19:05;12.52;;;7.20;;
63114;SDS011;49208;50.874;6.466;2024-02-16T18:21:31;9.77;;;6.68;;
63114;SDS011;49208;50.874;6.466;2024-02-16T18:23:56;9.88;;;6.50;;
63114;SDS011;49208;50.874;6.466;2024-02-16T18:26:22;10.02;;;6.43;;
63114;SDS011;49208;50.874;6.466;2024-02-16T18:28:47;9.32;;;5.43;;
63114;SDS011;49208;50.874;6.466;2024-02-16T18:31:12;8.52;;;5.13;;
63114;SDS011;49208;50.874;6.466;2024-02-16T18:33:38;8.18;;;5.22;;
63114;SDS011;49208;50.874;6.466;2024-02-16T18:36:03;9.38;;;5.95;;
63114;SDS011;49208;50.874;6.466;2024-02-16T18:38:30;9.15;;;5.35;;
63114;SDS011;49208;50.874;6.466;2024-02-16T18:40:56;8.80;;;5.07;;
63114;SDS011;49208;50.874;6.466;2024-02-16T18:43:22;10.57;;;5.78;;
63114;SDS011;49208;50.874;6.466;2024-02-16T18:45:47;11.63;;;6.88;;
63114;SDS011;49208;50.874;6.466;2024-02-16T18:48:13;12.60;;;7.03;;
63114;SDS011;49208;50.874;6.466;2024-02-16T18:50:39;13.10;;;7.30;;
63114;SDS011;49208;50.874;6.466;2024-02-16T18:53:04;13.60;;;7.78;;
63114;SDS011;49208;50.874;6.466;2024-02-16T18:55:29;16.17;;;8.27;;
63114;SDS011;49208;50.874;6.466;2024-02-16T18:57:55;14.48;;;7.07;;
63114;SDS011;49208;50.874;6.466;2024-02-16T19:00:20;13.02;;;7.45;;
63114;SDS011;49208;50.874;6.466;2024-02-16T19:02:46;14.05;;;8.25;;
63114;SDS011;49208;50.874;6.466;2024-02-16T19:05:12;14.77;;;8.27;;
63114;SDS011;49208;50.874;6.466;2024-02-16T19:07:38;14.52;;;7.90;;
63114;SDS011;49208;50.874;6.466;2024-02-16T19:10:04;13.23;;;7.72;;
63114;SDS011;49208;50.874;6.466;2024-02-16T19:12:30;13.85;;;7.95;;
63114;SDS011;49208;50.874;6.466;2024-02-16T19:14:55;12.93;;;7.75;;
63114;SDS011;49208;50.874;6.466;2024-02-16T19:17:21;15.82;;;8.65;;
63114;SDS011;49208;50.874;6.466;2024-02-16T19:19:47;12.90;;;7.25;;
63114;SDS011;49208;50.874;6.466;2024-02-16T19:22:12;15.82;;;8.68;;
63114;SDS011;49208;50.874;6.466;2024-02-16T19:24:38;14.73;;;8.45;;
63114;SDS011;49208;50.874;6.466;2024-02-16T19:27:04;14.73;;;9.27;;
63114;SDS011;49208;50.874;6.466;2024-02-16T19:29:30;15.02;;;9.00;;
63114;SDS011;49208;50.874;6.466;2024-02-16T19:31:56;13.75;;;7.10;;
63114;SDS011;49208;50.874;6.466;2024-02-16T19:34:21;16.40;;;9.88;;
63114;SDS011;49208;50.874;6.466;2024-02-16T19:36:47;14.40;;;8.18;;
63114;SDS011;49208;50.874;6.466;2024-02-16T19:39:12;13.35;;;7.47;;
63114;SDS011;49208;50.874;6.466;2024-02-16T19:41:47;14.25;;;8.40;;
63114;SDS011;49208;50.874;6.466;2024-02-16T19:44:13;14.63;;;7.93;;
63114;SDS011;49208;50.874;6.466;2024-02-16T19:46:41;12.52;;;7.45;;
63114;SDS011;49208;50.874;6.466;2024-02-16T19:49:07;13.50;;;8.07;;
63114;SDS011;49208;50.874;6.466;2024-02-16T19:51:33;16.48;;;8.65;;
63114;SDS011;49208;50.874;6.466;2024-02-16T19:53:59;15.32;;;9.27;;
63114;SDS011;49208;50.874;6.466;2024-02-16T19:56:26;15.45;;;9.27;;
63114;SDS011;49208;50.874;6.466;2024-02-16T19:58:51;15.88;;;9.07;;
63114;SDS011;49208;50.874;6.466;2024-02-16T20:01:19;14.98;;;9.15;;
63114;SDS011;49208;50.874;6.466;2024-02-16T20:03:44;11.55;;;7.28;;
63114;SDS011;49208;50.874;6.466;2024-02-16T20:06:10;17.58;;;8.95;;
63114;SDS011;49208;50.874;6.466;2024-02-16T20:08:35;17.73;;;9.23;;
63114;SDS011;49208;50.874;6.466;2024-02-16T20:11:01;22.05;;;12.38;;
63114;SDS011;49208;50.874;6.466;2024-02-16T20:13:26;15.95;;;9.93;;
63114;SDS011;49208;50.874;6.466;2024-02-16T20:15:53;19.67;;;11.35;;
63114;SDS011;49208;50.874;6.466;2024-02-16T20:18:19;19.63;;;12.18;;
63114;SDS011;49208;50.874;6.466;2024-02-16T20:20:51;19.75;;;11.93;;
63114;SDS011;49208;50.874;6.466;2024-02-16T20:23:17;20.03;;;11.93;;
63114;SDS011;49208;50.874;6.466;2024-02-16T20:25:44;20.73;;;11.60;;
63114;SDS011;49208;50.874;6.466;2024-02-16T20:28:10;17.92;;;11.95;;
63114;SDS011;49208;50.874;6.466;2024-02-16T20:30:36;18.85;;;11.35;;
63114;SDS011;49208;50.874;6.466;2024-02-16T20:33:02;22.05;;;12.52;;
63114;SDS011;49208;50.874;6.466;2024-02-16T20:35:29;20.60;;;12.00;;
63114;SDS011;49208;50.874;6.466;2024-02-16T20:37:56;21.80;;;11.30;;
63114;SDS011;49208;50.874;6.466;2024-02-16T20:40:23;22.20;;;11.82;;
63114;SDS011;49208;50.874;6.466;2024-02-16T20:42:51;22.45;;;13.35;;
63114;SDS011;49208;50.874;6.466;2024-02-16T20:45:17;20.17;;;11.98;;
63114;SDS011;49208;50.874;6.466;2024-02-16T20:47:42;24.55;;;13.43;;
63114;SDS011;49208;50.874;6.466;2024-02-16T20:50:08;23.90;;;12.93;;
63114;SDS011;49208;50.874;6.466;2024-02-16T20:52:34;24.48;;;13.88;;
63114;SDS011;49208;50.874;6.466;2024-02-16T20:54:59;21.70;;;12.35;;
63114;SDS011;49208;50.874;6.466;2024-02-16T20:57:24;24.80;;;13.25;;
63114;SDS011;49208;50.874;6.466;2024-02-16T20:59:50;23.67;;;13.32;;
63114;SDS011;49208;50.874;6.466;2024-02-16T21:02:15;25.42;;;13.57;;
63114;SDS011;49208;50.874;6.466;2024-02-16T21:04:41;23.55;;;12.95;;
63114;SDS011;49208;50.874;6.466;2024-02-16T21:07:07;25.63;;;15.07;;
63114;SDS011;49208;50.874;6.466;2024-02-16T21:09:32;26.25;;;13.38;;
63114;SDS011;49208;50.874;6.466;2024-02-16T21:11:57;24.00;;;13.68;;
63114;SDS011;49208;50.874;6.466;2024-02-16T21:14:24;22.88;;;13.55;;
63114;SDS011;49208;50.874;6.466;2024-02-16T21:16:50;20.85;;;12.77;;
63114;SDS011;49208;50.874;6.466;2024-02-16T21:19:16;18.92;;;11.43;;
63114;SDS011;49208;50.874;6.466;2024-02-16T21:21:42;22.73;;;12.32;;
63114;SDS011;49208;50.874;6.466;2024-02-16T21:24:10;25.33;;;12.75;;
63114;SDS011;49208;50.874;6.466;2024-02-16T21:26:35;24.98;;;12.98;;
63114;SDS011;49208;50.874;6.466;2024-02-16T21:29:00;24.85;;;13.23;;
63114;SDS011;49208;50.874;6.466;2024-02-16T21:31:29;21.30;;;11.98;;
63114;SDS011;49208;50.874;6.466;2024-02-16T21:33:55;23.48;;;12.85;;
63114;SDS011;49208;50.874;6.466;2024-02-16T21:36:20;26.48;;;15.60;;
63114;SDS011;49208;50.874;6.466;2024-02-16T21:38:48;24.77;;;13.00;;
63114;SDS011;49208;50.874;6.466;2024-02-16T21:41:13;28.05;;;14.73;;
63114;SDS011;49208;50.874;6.466;2024-02-16T21:43:39;30.90;;;17.52;;
63114;SDS011;49208;50.874;6.466;2024-02-16T21:46:05;32.80;;;16.77;;
63114;SDS011;49208;50.874;6.466;2024-02-16T21:48:32;31.67;;;16.17;;
63114;SDS011;49208;50.874;6.466;2024-02-16T21:50:58;29.63;;;15.38;;